Overview Statistics Trail Chart Weather Telemetry Raw packets
 

This is the latest recevied weather packets stored in our database for station/object EPGD. If no packets are shown the sender has not sent any weather packets the latest 10 day(s).

<< 3 4 5 6 7 8 9 >>
Time Temp. Humidity Pressure Rain* Wind** Luminosity Snow
1788377703 15° C 82% 1017 hPa - - - -
1788375903 15° C 82% 1017 hPa - - - -
1788374104 15.56° C 77% 1017 hPa - - - -
1788372304 15.56° C 77% 1017 hPa - - - -
1788370504 15.56° C 77% 1017 hPa - - - -
1788368704 16.67° C 72% 1017 hPa - - - -
1788366904 17.78° C 67% 1017 hPa - - - -
1788365104 17.78° C 72% 1017 hPa - - - -
1788363304 17.78° C 72% 1017 hPa - - - -
1788361503 17.78° C 67% 1017 hPa - - - -
1788359704 18.89° C 63% 1017 hPa - - - -
1788357903 18.89° C 63% 1017 hPa - - - -
1788356103 18.89° C 68% 1017 hPa - - - -
1788354304 18.89° C 68% 1017 hPa - - - -
1788352503 16.67° C 77% 1017 hPa - - - -
1788350704 18.89° C 68% 1017 hPa - - - -
1788348903 17.78° C 72% 1017 hPa - - - -
1788347104 17.78° C 77% 1017 hPa - - - -
1788345304 18.89° C 68% 1017 hPa - - - -
1788343504 17.78° C 72% 1017 hPa - - - -
1788341703 18.89° C 72% 1017 hPa - - - -
1788339904 17.78° C 77% 1017 hPa - - - -
1788338103 17.78° C 77% 1017 hPa - - - -
1788336304 16.67° C 82% 1017 hPa - - - -
1788334504 16.67° C 82% 1016 hPa - - - -

* Rain since midnight (hover to see other rain measurements)
** Current wind speed in m/s (hover to see current wind gust speed)